createdAt,value
2023-02-18T00:01:21.465Z,4.60
2023-02-18T00:05:27.842Z,4.66
2023-02-18T00:09:20.300Z,4.75
2023-02-18T00:12:38.433Z,4.74
2023-02-18T00:15:43.688Z,4.76
2023-02-18T00:18:47.595Z,4.77
2023-02-18T00:21:51.390Z,4.81
2023-02-18T00:24:55.297Z,4.92
2023-02-18T00:27:59.251Z,4.94
2023-02-18T00:31:09.355Z,4.92
2023-02-18T00:34:14.746Z,4.90
2023-02-18T00:37:18.493Z,4.96
2023-02-18T00:40:22.547Z,4.94
2023-02-18T00:43:26.543Z,5.05
2023-02-18T00:46:32.276Z,5.08
2023-02-18T00:49:36.405Z,5.07
2023-02-18T00:52:40.252Z,5.09
2023-02-18T00:55:45.551Z,5.14
2023-02-18T00:58:49.946Z,5.18
2023-02-18T01:01:55.208Z,5.16
2023-02-18T01:04:59.247Z,5.19
2023-02-18T01:08:03.332Z,5.16
2023-02-18T01:11:08.088Z,5.21
2023-02-18T01:14:11.924Z,5.26
2023-02-18T01:17:17.262Z,5.26
2023-02-18T01:20:22.042Z,5.27
2023-02-18T01:23:26.562Z,5.27
2023-02-18T01:26:30.528Z,5.27
2023-02-18T01:29:34.391Z,5.32
2023-02-18T01:32:40.248Z,5.33
2023-02-18T01:35:44.200Z,5.35
2023-02-18T01:38:58.808Z,5.35
2023-02-18T01:42:58.936Z,5.41
2023-02-18T01:47:03.571Z,5.44
2023-02-18T01:51:09.649Z,5.44
2023-02-18T01:54:41.313Z,5.44
2023-02-18T01:58:30.584Z,5.44
2023-02-18T02:02:35.324Z,5.44
2023-02-18T02:06:38.008Z,5.47
2023-02-18T02:10:44.185Z,5.47
2023-02-18T02:15:04.898Z,5.52
2023-02-18T02:19:27.960Z,5.53
2023-02-18T02:23:58.303Z,5.52
2023-02-18T02:28:38.269Z,5.57
2023-02-18T02:33:16.594Z,5.56
2023-02-18T02:37:32.112Z,5.60
2023-02-18T02:41:48.808Z,5.61
2023-02-18T02:45:54.488Z,5.63
2023-02-18T02:49:20.791Z,5.60
2023-02-18T02:53:28.930Z,5.67
2023-02-18T02:57:56.399Z,5.65
2023-02-18T03:02:03.895Z,5.64
2023-02-18T03:06:24.104Z,5.64
2023-02-18T03:11:00.915Z,5.65
2023-02-18T03:15:18.528Z,5.73
2023-02-18T03:19:17.436Z,5.76
2023-02-18T03:23:17.662Z,5.75
2023-02-18T03:27:17.536Z,5.80
2023-02-18T03:31:19.887Z,5.83
2023-02-18T03:34:54.348Z,5.84
2023-02-18T03:38:45.533Z,5.84
2023-02-18T03:42:53.438Z,5.84
2023-02-18T03:46:29.761Z,5.83
2023-02-18T03:49:40.450Z,5.76
2023-02-18T03:53:35.696Z,5.67
2023-02-18T03:56:47.706Z,5.61
2023-02-18T04:00:50.592Z,5.55
2023-02-18T04:04:46.510Z,5.53
2023-02-18T04:08:50.292Z,5.51
2023-02-18T04:12:44.099Z,5.44
2023-02-18T04:16:45.169Z,5.43
2023-02-18T04:20:45.294Z,5.40
2023-02-18T04:24:44.797Z,5.37
2023-02-18T04:28:46.173Z,5.30
2023-02-18T04:33:01.155Z,5.28
2023-02-18T04:37:29.093Z,5.28
2023-02-18T04:41:37.354Z,5.28
2023-02-18T04:45:32.428Z,5.31
2023-02-18T04:50:00.244Z,5.30
2023-02-18T04:53:25.369Z,5.30
2023-02-18T04:56:32.582Z,5.31
2023-02-18T04:59:36.386Z,5.30
2023-02-18T05:02:40.282Z,5.28
2023-02-18T05:05:45.950Z,5.29
2023-02-18T05:08:49.743Z,5.31
2023-02-18T05:11:53.504Z,5.30
2023-02-18T05:14:57.354Z,5.27
2023-02-18T05:18:10.294Z,5.26
2023-02-18T05:21:15.768Z,5.26
2023-02-18T05:24:19.545Z,5.23
2023-02-18T05:27:23.404Z,5.24
2023-02-18T05:30:27.181Z,5.24
2023-02-18T05:33:30.982Z,5.28
2023-02-18T05:36:36.460Z,5.31
2023-02-18T05:39:40.625Z,5.33
2023-02-18T05:42:44.775Z,5.34
2023-02-18T05:45:48.687Z,5.32
2023-02-18T05:48:52.662Z,5.29
2023-02-18T05:51:58.252Z,5.26
2023-02-18T05:55:02.044Z,5.24
2023-02-18T05:58:06.083Z,5.22
2023-02-18T06:01:09.958Z,5.18
2023-02-18T06:04:14.316Z,5.20
2023-02-18T06:07:20.753Z,5.20
2023-02-18T06:10:24.637Z,5.15
2023-02-18T06:13:28.706Z,5.17
2023-02-18T06:16:33.117Z,5.18
2023-02-18T06:19:36.920Z,5.17
2023-02-18T06:22:42.172Z,5.15
2023-02-18T06:25:46.096Z,5.16
2023-02-18T06:28:50.085Z,5.18
2023-02-18T06:31:53.888Z,5.16
2023-02-18T06:34:57.777Z,5.14
2023-02-18T06:38:02.962Z,5.14
2023-02-18T06:41:07.436Z,5.18
2023-02-18T06:44:11.446Z,5.11
2023-02-18T06:47:15.274Z,5.11
2023-02-18T06:50:19.733Z,5.24
2023-02-18T06:53:25.030Z,5.15
2023-02-18T06:56:30.912Z,5.09
2023-02-18T06:59:35.210Z,5.20
2023-02-18T07:02:39.177Z,5.09
2023-02-18T07:05:52.747Z,5.09
2023-02-18T07:08:58.474Z,5.08
2023-02-18T07:12:16.398Z,5.06
2023-02-18T07:15:24.572Z,5.10
2023-02-18T07:18:28.379Z,5.06
2023-02-18T07:21:32.293Z,5.08
2023-02-18T07:24:38.416Z,5.05
2023-02-18T07:27:42.619Z,5.15
2023-02-18T07:30:46.741Z,5.11
2023-02-18T07:33:50.628Z,5.10
2023-02-18T07:36:54.413Z,5.14
2023-02-18T07:39:59.867Z,5.19
2023-02-18T07:43:05.901Z,5.18
2023-02-18T07:46:13.437Z,5.22
2023-02-18T07:49:19.970Z,5.30
2023-02-18T07:52:35.420Z,5.37
2023-02-18T07:55:50.648Z,5.41
2023-02-18T07:58:54.578Z,5.40
2023-02-18T08:01:58.527Z,5.45
2023-02-18T08:05:02.352Z,5.49
2023-02-18T08:08:06.682Z,5.55
2023-02-18T08:11:18.833Z,5.60
2023-02-18T08:14:23.451Z,5.74
2023-02-18T08:17:27.271Z,5.92
2023-02-18T08:20:31.192Z,6.01
2023-02-18T08:23:35.827Z,6.13
2023-02-18T08:26:54.310Z,6.22
2023-02-18T08:30:03.387Z,6.29
2023-02-18T08:33:07.319Z,6.42
2023-02-18T08:36:11.790Z,6.49
2023-02-18T08:39:15.647Z,6.59
2023-02-18T08:42:20.917Z,6.85
2023-02-18T08:45:24.801Z,6.99
2023-02-18T08:48:29.537Z,7.23
2023-02-18T08:51:33.603Z,7.42
2023-02-18T08:54:52.166Z,7.64
2023-02-18T08:58:07.902Z,7.70
2023-02-18T09:01:29.714Z,7.83
2023-02-18T09:04:45.750Z,7.87
2023-02-18T09:07:49.642Z,7.93
2023-02-18T09:11:42.127Z,8.03
2023-02-18T09:15:10.816Z,8.12
2023-02-18T09:18:50.752Z,8.20
2023-02-18T09:22:05.523Z,8.25
2023-02-18T09:25:26.338Z,8.33
2023-02-18T09:29:04.473Z,8.39
2023-02-18T09:32:50.582Z,8.45
2023-02-18T09:36:08.177Z,8.51
2023-02-18T09:39:15.896Z,8.56
2023-02-18T09:42:25.920Z,8.56
2023-02-18T09:45:30.455Z,8.56
2023-02-18T09:48:38.804Z,8.60
2023-02-18T09:51:42.732Z,8.63
2023-02-18T09:54:46.687Z,8.68
2023-02-18T09:57:54.394Z,8.64
2023-02-18T10:01:15.994Z,8.66
2023-02-18T10:04:25.035Z,8.66
2023-02-18T10:07:33.247Z,8.68
2023-02-18T10:10:43.891Z,8.70
2023-02-18T10:13:48.359Z,8.75
2023-02-18T10:16:55.593Z,8.71
2023-02-18T10:20:07.866Z,8.66
2023-02-18T10:23:15.164Z,8.66
2023-02-18T10:26:20.899Z,8.66
2023-02-18T10:29:26.809Z,8.62
2023-02-18T10:32:39.234Z,8.54
2023-02-18T10:35:54.675Z,8.51
2023-02-18T10:39:32.981Z,8.54
2023-02-18T10:42:56.242Z,8.51
2023-02-18T10:46:13.950Z,8.51
2023-02-18T10:49:48.396Z,8.57
2023-02-18T10:53:01.120Z,8.62
2023-02-18T10:56:07.033Z,8.64
2023-02-18T10:59:20.779Z,8.67
2023-02-18T11:02:30.973Z,8.69
2023-02-18T11:05:38.272Z,8.68
2023-02-18T11:08:47.333Z,8.66
2023-02-18T11:12:01.356Z,8.64
2023-02-18T11:15:22.412Z,8.66
2023-02-18T11:18:37.907Z,8.71
2023-02-18T11:21:41.864Z,8.69
2023-02-18T11:24:50.396Z,8.68
2023-02-18T11:27:58.775Z,8.69
2023-02-18T11:31:06.030Z,8.62
2023-02-18T11:34:18.656Z,8.57
2023-02-18T11:37:24.632Z,8.54
2023-02-18T11:40:33.777Z,8.54
2023-02-18T11:43:42.282Z,8.57
2023-02-18T11:46:59.561Z,8.60
2023-02-18T11:50:23.581Z,8.57
2023-02-18T11:53:31.924Z,8.55
2023-02-18T11:56:39.725Z,8.53
2023-02-18T11:59:45.626Z,8.53
2023-02-18T12:02:49.880Z,8.54
2023-02-18T12:05:54.128Z,8.53
2023-02-18T12:09:04.951Z,8.59
2023-02-18T12:12:19.030Z,8.67
2023-02-18T12:15:35.471Z,8.67
2023-02-18T12:19:03.632Z,8.75
2023-02-18T12:22:23.011Z,8.72
2023-02-18T12:25:41.177Z,8.70
2023-02-18T12:29:06.547Z,8.71
2023-02-18T12:32:26.243Z,8.68
2023-02-18T12:35:53.615Z,8.68
2023-02-18T12:39:12.648Z,8.66
2023-02-18T12:42:36.045Z,8.65
2023-02-18T12:46:30.309Z,8.63
2023-02-18T12:50:23.666Z,8.60
2023-02-18T12:53:57.199Z,8.58
2023-02-18T12:57:24.469Z,8.56
2023-02-18T13:01:42.992Z,8.61
2023-02-18T13:06:04.371Z,8.63
2023-02-18T13:10:18.518Z,8.63
2023-02-18T13:14:26.837Z,8.67
2023-02-18T13:17:55.276Z,8.68
2023-02-18T13:21:14.910Z,8.75
2023-02-18T13:25:11.628Z,8.82
2023-02-18T13:28:30.594Z,8.83
2023-02-18T13:32:03.844Z,8.92
2023-02-18T13:36:08.566Z,8.91
2023-02-18T13:39:37.065Z,8.92
2023-02-18T13:42:40.834Z,8.94
2023-02-18T13:46:53.012Z,8.89
2023-02-18T13:51:24.402Z,8.91
2023-02-18T13:55:17.086Z,8.98
2023-02-18T13:59:34.826Z,8.95
2023-02-18T14:04:01.902Z,8.92
2023-02-18T14:08:40.837Z,8.83
2023-02-18T14:13:07.490Z,8.73
2023-02-18T14:17:33.126Z,8.64
2023-02-18T14:22:19.240Z,8.67
2023-02-18T14:25:41.667Z,8.90
2023-02-18T14:29:40.171Z,8.95
2023-02-18T14:33:37.935Z,9.02
2023-02-18T14:38:15.140Z,9.15
2023-02-18T14:42:25.182Z,9.07
2023-02-18T14:47:18.989Z,9.06
2023-02-18T14:51:37.588Z,9.08
2023-02-18T14:55:35.943Z,9.09
2023-02-18T14:59:39.659Z,9.09
2023-02-18T15:03:42.453Z,9.03
2023-02-18T15:07:51.862Z,9.03
2023-02-18T15:11:47.742Z,8.97
2023-02-18T15:15:06.809Z,9.01
2023-02-18T15:18:28.580Z,8.97
2023-02-18T15:21:41.121Z,8.84
2023-02-18T15:24:46.186Z,8.88
2023-02-18T15:27:55.121Z,8.90
2023-02-18T15:31:01.118Z,8.89
2023-02-18T15:34:36.194Z,8.81
2023-02-18T15:37:40.090Z,8.71
2023-02-18T15:40:48.354Z,8.64
2023-02-18T15:44:02.208Z,8.58
2023-02-18T15:47:10.872Z,8.54
2023-02-18T15:50:26.243Z,8.47
2023-02-18T15:53:31.900Z,8.47
2023-02-18T15:56:40.447Z,8.39
2023-02-18T15:59:55.793Z,8.37
2023-02-18T16:03:14.432Z,8.35
2023-02-18T16:06:25.512Z,8.38
2023-02-18T16:09:34.294Z,8.49
2023-02-18T16:12:40.882Z,8.46
2023-02-18T16:15:50.800Z,8.47
2023-02-18T16:18:54.997Z,8.50
2023-02-18T16:22:06.540Z,8.48
2023-02-18T16:25:20.405Z,8.29
2023-02-18T16:28:28.965Z,8.07
2023-02-18T16:31:32.750Z,8.00
2023-02-18T16:34:37.055Z,7.86
2023-02-18T16:37:46.096Z,7.83
2023-02-18T16:40:50.892Z,7.94
2023-02-18T16:43:54.708Z,7.87
2023-02-18T16:46:59.291Z,7.91
2023-02-18T16:50:03.382Z,7.99
2023-02-18T16:53:08.615Z,7.94
2023-02-18T16:56:18.950Z,7.93
2023-02-18T16:59:22.776Z,7.93
2023-02-18T17:02:33.091Z,7.93
2023-02-18T17:05:40.241Z,7.88
2023-02-18T17:08:46.045Z,7.87
2023-02-18T17:11:53.503Z,7.86
2023-02-18T17:14:57.296Z,7.83
2023-02-18T17:18:01.908Z,7.78
2023-02-18T17:21:06.501Z,7.79
2023-02-18T17:24:14.637Z,7.75
2023-02-18T17:27:18.562Z,7.71
2023-02-18T17:30:22.344Z,7.65
2023-02-18T17:33:27.241Z,7.72
2023-02-18T17:36:31.103Z,7.64
2023-02-18T17:39:36.389Z,7.63
2023-02-18T17:42:40.126Z,7.66
2023-02-18T17:45:51.821Z,7.60
2023-02-18T17:48:55.613Z,7.56
2023-02-18T17:51:59.658Z,7.50
2023-02-18T17:55:23.969Z,7.33
2023-02-18T17:58:28.407Z,7.03
2023-02-18T18:01:32.389Z,6.98
2023-02-18T18:04:36.316Z,6.83
2023-02-18T18:07:40.164Z,6.84
2023-02-18T18:10:53.353Z,6.80
2023-02-18T18:13:58.121Z,6.76
2023-02-18T18:17:03.118Z,6.66
2023-02-18T18:20:09.723Z,6.57
2023-02-18T18:23:16.444Z,6.54
2023-02-18T18:26:22.056Z,6.58
2023-02-18T18:29:26.586Z,6.60
2023-02-18T18:32:30.716Z,6.70
2023-02-18T18:35:38.520Z,6.75
2023-02-18T18:38:42.409Z,6.72
2023-02-18T18:41:48.125Z,6.69
2023-02-18T18:44:52.121Z,6.63
2023-02-18T18:47:56.817Z,6.56
2023-02-18T18:51:02.730Z,6.50
2023-02-18T18:54:07.090Z,6.46
2023-02-18T18:57:12.313Z,6.43
2023-02-18T19:00:19.754Z,6.43
2023-02-18T19:03:25.425Z,6.45
2023-02-18T19:06:29.182Z,6.44
2023-02-18T19:09:32.988Z,6.35
2023-02-18T19:12:38.193Z,6.10
2023-02-18T19:15:42.542Z,6.04
2023-02-18T19:18:47.011Z,5.93
2023-02-18T19:21:50.814Z,5.94
2023-02-18T19:24:54.563Z,5.86
2023-02-18T19:28:00.129Z,5.76
2023-02-18T19:31:08.270Z,5.77
2023-02-18T19:34:12.187Z,5.71
2023-02-18T19:37:15.989Z,5.68
2023-02-18T19:40:23.835Z,5.68
2023-02-18T19:43:29.146Z,5.69
2023-02-18T19:46:33.147Z,5.66
2023-02-18T19:49:36.952Z,5.63
2023-02-18T19:52:41.146Z,5.65
2023-02-18T19:55:44.921Z,5.62
2023-02-18T19:58:50.117Z,5.62
2023-02-18T20:01:54.758Z,5.74
2023-02-18T20:05:01.692Z,5.60
2023-02-18T20:08:05.572Z,5.62
2023-02-18T20:11:09.660Z,5.65
2023-02-18T20:14:15.715Z,5.65
2023-02-18T20:17:20.816Z,5.59
2023-02-18T20:20:26.959Z,5.57
2023-02-18T20:23:32.243Z,5.57
2023-02-18T20:26:36.237Z,5.57
2023-02-18T20:29:41.649Z,5.60
2023-02-18T20:32:45.406Z,5.55
2023-02-18T20:35:57.274Z,5.56
2023-02-18T20:39:15.346Z,5.51
2023-02-18T20:42:28.279Z,5.47
2023-02-18T20:45:57.602Z,5.41
2023-02-18T20:49:03.040Z,5.37
2023-02-18T20:52:08.165Z,5.36
2023-02-18T20:55:12.073Z,5.33
2023-02-18T20:58:16.139Z,5.30
2023-02-18T21:01:24.307Z,5.28
2023-02-18T21:04:28.546Z,5.29
2023-02-18T21:07:34.590Z,5.26
2023-02-18T21:10:41.827Z,5.20
2023-02-18T21:13:48.168Z,5.17
2023-02-18T21:16:53.335Z,5.13
2023-02-18T21:19:57.318Z,5.14
2023-02-18T21:23:02.545Z,5.13
2023-02-18T21:26:10.705Z,5.10
2023-02-18T21:29:17.041Z,5.03
2023-02-18T21:32:22.710Z,5.00
2023-02-18T21:35:27.388Z,5.00
2023-02-18T21:38:31.187Z,4.98
2023-02-18T21:41:40.101Z,4.90
2023-02-18T21:44:44.530Z,4.81
2023-02-18T21:47:49.985Z,4.87
2023-02-18T21:50:53.807Z,4.85
2023-02-18T21:53:57.679Z,4.79
2023-02-18T21:57:05.000Z,4.79
2023-02-18T22:00:19.964Z,4.78
2023-02-18T22:03:25.991Z,4.79
2023-02-18T22:06:29.781Z,4.67
2023-02-18T22:09:33.650Z,4.67
2023-02-18T22:12:37.637Z,4.64
2023-02-18T22:15:42.144Z,4.63
2023-02-18T22:18:47.515Z,4.55
2023-02-18T22:21:51.367Z,4.50
2023-02-18T22:24:55.137Z,4.45
2023-02-18T22:27:58.894Z,4.41
2023-02-18T22:31:07.631Z,4.46
2023-02-18T22:34:13.071Z,4.34
2023-02-18T22:37:16.851Z,4.34
2023-02-18T22:40:20.875Z,4.29
2023-02-18T22:43:24.744Z,4.39
2023-02-18T22:46:30.258Z,4.28
2023-02-18T22:49:35.430Z,4.29
2023-02-18T22:52:39.132Z,4.27
2023-02-18T22:55:42.843Z,4.30
2023-02-18T22:58:49.162Z,4.32
2023-02-18T23:01:53.596Z,4.20
2023-02-18T23:04:58.823Z,4.21
2023-02-18T23:08:04.309Z,4.23
2023-02-18T23:11:12.525Z,4.29
2023-02-18T23:14:21.724Z,4.20
2023-02-18T23:17:25.557Z,4.15
2023-02-18T23:20:48.130Z,4.10
2023-02-18T23:23:55.268Z,4.17
2023-02-18T23:26:59.109Z,4.09
2023-02-18T23:30:03.058Z,4.07
2023-02-18T23:33:06.872Z,4.05
2023-02-18T23:36:15.856Z,4.09
2023-02-18T23:39:21.833Z,4.10
2023-02-18T23:42:25.710Z,4.17
2023-02-18T23:45:29.865Z,4.11
2023-02-18T23:48:38.420Z,4.08
2023-02-18T23:51:44.373Z,4.18
2023-02-18T23:54:48.229Z,4.01
2023-02-18T23:57:51.919Z,4.10
